Time;durP1;ratioP1;P1;durP2;ratioP2;P2;SDS_P1;SDS_P2;PMS_P1;PMS_P2;Temp;Humidity;BMP_temperature;BMP_pressure;BME280_temperature;BME280_humidity;BME280_pressure;Samples;Min_cycle;Max_cycle;Signal;HPM_P1;HPM_P2
2022/08/30 00:01:23;;;;;;;15.87;7.77;;;;;;;14.38;100.00;100107.63;4209116;28;20242;-63
2022/08/30 00:03:50;;;;;;;15.93;7.70;;;;;;;14.36;100.00;100108.59;4203983;28;20243;-67
2022/08/30 00:06:18;;;;;;;15.07;7.70;;;;;;;14.43;100.00;100105.22;4204742;28;20303;-65
2022/08/30 00:08:47;;;;;;;15.60;8.50;;;;;;;14.29;100.00;100102.28;4201098;28;23360;-63
2022/08/30 00:11:23;;;;;;;21.63;9.07;;;;;;;14.15;100.00;100109.25;4210692;28;20389;-64
2022/08/30 00:13:51;;;;;;;19.23;8.37;;;;;;;14.19;100.00;100115.09;4192536;28;20228;-63
2022/08/30 00:16:20;;;;;;;17.33;8.30;;;;;;;14.11;100.00;100115.13;4202516;28;22199;-64
2022/08/30 00:18:47;;;;;;;15.47;8.63;;;;;;;14.14;100.00;100112.94;4214559;28;20236;-64
2022/08/30 00:21:14;;;;;;;23.30;9.57;;;;;;;14.12;100.00;100116.81;4199988;28;20303;-65
2022/08/30 00:23:41;;;;;;;15.60;9.10;;;;;;;14.13;100.00;100113.09;4207739;28;20306;-63
2022/08/30 00:26:07;;;;;;;16.93;8.77;;;;;;;14.12;100.00;100114.13;4209431;28;21802;-63
2022/08/30 00:28:34;;;;;;;15.33;9.17;;;;;;;14.12;100.00;100114.13;4204505;28;20232;-64
2022/08/30 00:31:01;;;;;;;17.07;9.30;;;;;;;14.11;100.00;100112.44;4214300;28;20239;-65
2022/08/30 00:33:29;;;;;;;22.23;9.37;;;;;;;14.11;100.00;100109.75;4227420;28;20345;-65
2022/08/30 00:35:57;;;;;;;18.47;9.60;;;;;;;14.14;100.00;100109.41;4253190;28;20266;-64
2022/08/30 00:38:24;;;;;;;21.83;9.40;;;;;;;14.15;100.00;100111.91;4220251;28;21131;-64
2022/08/30 00:40:51;;;;;;;19.57;9.47;;;;;;;14.21;100.00;100107.72;4204284;28;20553;-65
2022/08/30 00:43:30;;;;;;;17.43;9.00;;;;;;;14.13;100.00;100108.56;4207952;28;21091;-65
2022/08/30 00:45:57;;;;;;;23.13;10.57;;;;;;;14.12;100.00;100106.09;4232124;28;20235;-64
2022/08/30 00:48:24;;;;;;;18.77;9.07;;;;;;;14.14;100.00;100101.38;4205581;28;20290;-66
2022/08/30 00:50:59;;;;;;;21.10;9.10;;;;;;;14.00;100.00;100104.81;4204411;28;20291;-62
2022/08/30 00:53:38;;;;;;;17.57;9.33;;;;;;;14.01;100.00;100098.47;4201344;28;21158;-66
2022/08/30 00:56:05;;;;;;;15.47;9.40;;;;;;;14.02;100.00;100105.47;4178331;28;22121;-64
2022/08/30 00:58:39;;;;;;;21.23;9.67;;;;;;;14.06;100.00;100110.28;4208865;28;20232;-64
2022/08/30 01:01:07;;;;;;;19.13;9.63;;;;;;;14.03;100.00;100107.97;4222448;28;20228;-65
2022/08/30 01:03:34;;;;;;;20.20;9.50;;;;;;;14.02;100.00;100110.81;4215561;28;20243;-67
2022/08/30 01:06:03;;;;;;;25.77;10.27;;;;;;;13.99;100.00;100106.66;4196404;28;21231;-64
2022/08/30 01:08:29;;;;;;;23.97;10.20;;;;;;;14.00;100.00;100105.66;4211356;28;20245;-65
2022/08/30 01:10:58;;;;;;;19.03;9.97;;;;;;;14.10;100.00;100108.94;4205044;28;21835;-65
2022/08/30 01:13:25;;;;;;;22.77;9.70;;;;;;;14.05;100.00;100110.50;4216896;28;20645;-64
2022/08/30 01:15:53;;;;;;;18.60;10.33;;;;;;;14.05;100.00;100113.16;4209245;28;20275;-64
2022/08/30 01:18:22;;;;;;;22.13;10.40;;;;;;;14.01;100.00;100109.16;4205612;28;20229;-64
2022/08/30 01:20:57;;;;;;;25.07;11.10;;;;;;;14.02;100.00;100113.50;4216993;28;20229;-63
2022/08/30 01:23:24;;;;;;;19.93;10.47;;;;;;;14.02;100.00;100117.00;4210131;28;21379;-64
2022/08/30 01:25:53;;;;;;;18.73;10.30;;;;;;;14.01;100.00;100114.50;4210769;28;22227;-63
2022/08/30 01:28:22;;;;;;;21.17;10.27;;;;;;;13.99;100.00;100112.00;4194420;28;20256;-62
2022/08/30 01:30:49;;;;;;;18.37;9.57;;;;;;;14.08;100.00;100107.44;4214526;28;21254;-64
2022/08/30 01:33:18;;;;;;;27.47;10.40;;;;;;;14.03;100.00;100112.50;4240865;28;20239;-64
2022/08/30 01:35:52;;;;;;;22.10;10.60;;;;;;;14.05;100.00;100110.50;4194677;28;21365;-64
2022/08/30 01:38:22;;;;;;;17.30;9.30;;;;;;;13.98;100.00;100114.84;4203795;28;20286;-63
2022/08/30 01:40:49;;;;;;;20.87;9.57;;;;;;;14.04;100.00;100111.47;4243200;28;20232;-65
2022/08/30 01:43:17;;;;;;;20.43;9.00;;;;;;;13.97;100.00;100111.34;4196494;28;20262;-64
2022/08/30 01:45:44;;;;;;;14.20;9.17;;;;;;;14.00;100.00;100111.00;4204612;28;20426;-65
2022/08/30 01:48:11;;;;;;;17.57;9.47;;;;;;;14.01;100.00;100111.84;4223322;28;20236;-66
2022/08/30 01:50:40;;;;;;;22.53;10.20;;;;;;;13.85;100.00;100110.91;4200799;28;20302;-63
2022/08/30 01:53:07;;;;;;;17.47;10.87;;;;;;;13.79;100.00;100116.97;4200193;28;20241;-64
2022/08/30 01:55:39;;;;;;;21.60;10.87;;;;;;;13.76;100.00;100111.13;4208340;28;20233;-65
2022/08/30 01:58:05;;;;;;;22.60;10.27;;;;;;;13.81;100.00;100117.59;4189766;28;20239;-65
2022/08/30 02:00:32;;;;;;;19.77;9.50;;;;;;;13.81;100.00;100108.75;4187106;28;20241;-66
2022/08/30 02:02:59;;;;;;;19.20;10.33;;;;;;;13.77;100.00;100108.28;4194073;28;20260;-65
2022/08/30 02:05:25;;;;;;;20.17;10.60;;;;;;;13.86;100.00;100106.38;4190680;28;20317;-63
2022/08/30 02:07:52;;;;;;;21.80;10.57;;;;;;;13.80;100.00;100107.91;4189194;28;20256;-64
2022/08/30 02:10:19;;;;;;;22.30;11.20;;;;;;;13.74;100.00;100111.28;4194643;28;21378;-66
2022/08/30 02:12:46;;;;;;;18.30;9.87;;;;;;;13.69;100.00;100113.63;4213846;28;21318;-64
2022/08/30 02:15:13;;;;;;;25.87;11.07;;;;;;;13.69;100.00;100113.63;4203653;28;20236;-66
2022/08/30 02:17:40;;;;;;;18.93;11.53;;;;;;;13.67;100.00;100104.94;4197785;28;20231;-63
2022/08/30 02:20:08;;;;;;;23.90;10.97;;;;;;;13.60;100.00;100104.84;4215482;28;21080;-65
2022/08/30 02:22:34;;;;;;;23.50;11.63;;;;;;;13.59;100.00;100100.47;4210353;28;20235;-65
2022/08/30 02:25:03;;;;;;;23.57;11.90;;;;;;;13.57;100.00;100101.66;4179460;28;20507;-65
2022/08/30 02:27:30;;;;;;;20.90;11.67;;;;;;;13.50;100.00;100102.34;4188614;28;20235;-65
2022/08/30 02:29:57;;;;;;;21.57;11.33;;;;;;;13.60;100.00;100107.50;4211866;28;21968;-64
2022/08/30 02:32:24;;;;;;;20.93;11.00;;;;;;;13.62;100.00;100107.31;4199461;28;20919;-65
2022/08/30 02:34:50;;;;;;;21.63;11.03;;;;;;;13.62;100.00;100115.34;4207045;28;20453;-67
2022/08/30 02:37:19;;;;;;;25.57;11.63;;;;;;;13.59;100.00;100107.69;4191000;28;23734;-63
2022/08/30 02:39:45;;;;;;;18.70;11.37;;;;;;;13.61;100.00;100114.50;4212953;28;20618;-65
2022/08/30 02:42:12;;;;;;;22.70;11.00;;;;;;;13.66;100.00;100116.66;4208111;28;20236;-64
2022/08/30 02:44:39;;;;;;;28.07;11.27;;;;;;;13.52;100.00;100112.88;4192283;28;20640;-64
2022/08/30 02:47:05;;;;;;;24.10;10.30;;;;;;;13.48;100.00;100119.56;4191662;28;20426;-65
2022/08/30 02:49:32;;;;;;;23.87;10.63;;;;;;;13.43;100.00;100122.75;4190870;28;22046;-63
2022/08/30 02:52:00;;;;;;;25.10;12.70;;;;;;;13.44;100.00;100123.59;4205811;28;20232;-65
2022/08/30 02:54:27;;;;;;;21.37;11.33;;;;;;;13.47;100.00;100117.91;4272887;28;20299;-64
2022/08/30 02:56:55;;;;;;;23.20;12.10;;;;;;;13.39;100.00;100118.78;4193751;28;20278;-65
2022/08/30 02:59:22;;;;;;;23.97;11.97;;;;;;;13.40;100.00;100120.44;4188086;28;20248;-65
2022/08/30 03:01:49;;;;;;;25.37;12.57;;;;;;;13.47;100.00;100120.56;4205037;28;20253;-66
2022/08/30 03:04:15;;;;;;;23.60;12.50;;;;;;;13.38;100.00;100125.09;4214655;28;20301;-65
2022/08/30 03:06:43;;;;;;;24.23;12.33;;;;;;;13.41;100.00;100124.75;4204171;28;20231;-65
2022/08/30 03:09:09;;;;;;;23.23;12.90;;;;;;;13.47;100.00;100131.28;4204244;28;20232;-66
2022/08/30 03:11:36;;;;;;;25.87;12.90;;;;;;;13.42;100.00;100128.28;4193463;28;22429;-67
2022/08/30 03:14:03;;;;;;;26.63;12.30;;;;;;;13.41;100.00;100126.59;4188859;28;21750;-66
2022/08/30 03:16:29;;;;;;;21.30;13.27;;;;;;;13.34;100.00;100134.47;4198739;28;20439;-64
2022/08/30 03:18:57;;;;;;;25.80;12.53;;;;;;;13.45;100.00;100134.09;4184793;28;21401;-65
2022/08/30 03:21:24;;;;;;;26.80;13.43;;;;;;;13.42;100.00;100134.47;4198081;28;20239;-63
2022/08/30 03:23:50;;;;;;;24.50;13.23;;;;;;;13.38;100.00;100140.31;4196722;28;20264;-65
2022/08/30 03:26:17;;;;;;;26.73;14.03;;;;;;;13.45;100.00;100136.78;4175687;28;20228;-65
2022/08/30 03:28:43;;;;;;;27.33;13.90;;;;;;;13.35;100.00;100138.00;4200289;28;20238;-66
2022/08/30 03:31:11;;;;;;;25.53;13.57;;;;;;;13.39;100.00;100132.13;4206876;28;22810;-65
2022/08/30 03:33:42;;;;;;;25.50;13.60;;;;;;;13.40;100.00;100136.47;4193335;28;24107;-64
2022/08/30 03:36:09;;;;;;;27.93;14.57;;;;;;;13.39;100.00;100142.81;4180265;28;20240;-66
2022/08/30 03:38:35;;;;;;;27.93;14.57;;;;;;;13.41;100.00;100139.97;4206346;28;20992;-65
2022/08/30 03:41:03;;;;;;;21.47;12.93;;;;;;;13.46;100.00;100140.28;4195895;28;20236;-66
2022/08/30 03:43:32;;;;;;;26.03;13.33;;;;;;;13.47;100.00;100140.13;4211772;28;20390;-66
2022/08/30 03:46:00;;;;;;;26.87;15.50;;;;;;;13.52;100.00;100143.09;4193991;28;21324;-64
2022/08/30 03:48:28;;;;;;;33.53;14.83;;;;;;;13.50;100.00;100134.41;4204863;28;20228;-66
2022/08/30 03:50:54;;;;;;;25.47;14.43;;;;;;;13.44;100.00;100140.47;4204457;28;20228;-66
2022/08/30 03:53:21;;;;;;;27.27;13.90;;;;;;;13.33;100.00;100135.47;4206195;28;21515;-67
2022/08/30 03:55:52;;;;;;;24.10;14.30;;;;;;;13.36;100.00;100136.97;4179031;28;20228;-64
2022/08/30 03:58:20;;;;;;;28.57;13.83;;;;;;;13.40;100.00;100133.78;4210726;28;20333;-64
2022/08/30 04:00:46;;;;;;;27.13;13.50;;;;;;;13.46;100.00;100143.81;4209628;28;20233;-66
2022/08/30 04:03:13;;;;;;;23.07;13.70;;;;;;;13.45;100.00;100146.66;4220577;28;21136;-64
2022/08/30 04:05:40;;;;;;;28.47;14.37;;;;;;;13.49;100.00;100148.81;4196225;28;20244;-63
2022/08/30 04:08:07;;;;;;;24.20;14.90;;;;;;;13.48;100.00;100140.94;4217847;28;20233;-64
2022/08/30 04:10:34;;;;;;;29.40;15.70;;;;;;;13.47;100.00;100144.63;4210988;28;21624;-64
2022/08/30 04:13:01;;;;;;;28.03;14.80;;;;;;;13.47;100.00;100142.78;4213511;28;20228;-64
2022/08/30 04:15:28;;;;;;;29.37;14.13;;;;;;;13.54;100.00;100144.78;4224533;28;20232;-65
2022/08/30 04:17:54;;;;;;;26.00;14.60;;;;;;;13.48;100.00;100144.44;4209236;28;20353;-63
2022/08/30 04:20:22;;;;;;;24.60;13.77;;;;;;;13.50;100.00;100145.09;4214470;28;23351;-63
2022/08/30 04:22:50;;;;;;;29.30;14.97;;;;;;;13.48;100.00;100146.28;4211284;28;20236;-65
2022/08/30 04:25:16;;;;;;;29.00;14.90;;;;;;;13.45;100.00;100147.47;4223343;28;20629;-63
2022/08/30 04:27:44;;;;;;;24.87;13.60;;;;;;;13.51;100.00;100151.31;4202245;28;22436;-65
2022/08/30 04:30:13;;;;;;;28.07;14.00;;;;;;;13.59;100.00;100159.31;4188547;28;22298;-63
2022/08/30 04:32:40;;;;;;;30.00;15.70;;;;;;;13.57;100.00;100149.78;4209488;28;20354;-65
2022/08/30 04:35:07;;;;;;;29.13;14.80;;;;;;;13.65;100.00;100158.63;4209197;28;22076;-64
2022/08/30 04:37:33;;;;;;;27.53;15.00;;;;;;;13.77;100.00;100160.94;4184728;28;20236;-65
2022/08/30 04:40:00;;;;;;;26.40;14.80;;;;;;;13.82;100.00;100166.59;4198551;28;20233;-64
2022/08/30 04:42:30;;;;;;;31.47;16.10;;;;;;;13.85;100.00;100161.72;4189605;28;20554;-66
2022/08/30 04:45:00;;;;;;;25.03;14.90;;;;;;;13.97;100.00;100169.38;4206950;28;20395;-65
2022/08/30 04:47:27;;;;;;;23.87;14.03;;;;;;;14.00;100.00;100171.69;4210890;28;20771;-65
2022/08/30 04:49:54;;;;;;;23.63;13.73;;;;;;;14.04;100.00;100178.38;4193759;28;20287;-64
2022/08/30 04:52:21;;;;;;;22.57;14.60;;;;;;;14.11;100.00;100184.69;4201099;28;20272;-63
2022/08/30 04:54:57;;;;;;;23.40;13.40;;;;;;;14.11;100.00;100185.50;4212061;28;20248;-63
2022/08/30 04:57:25;;;;;;;22.07;13.40;;;;;;;14.23;100.00;100185.97;4186604;28;20265;-67
2022/08/30 04:59:52;;;;;;;20.67;11.37;;;;;;;14.38;100.00;100182.56;4180867;28;20597;-65
2022/08/30 05:02:18;;;;;;;20.37;10.60;;;;;;;14.40;100.00;100180.53;4200647;28;20230;-64
2022/08/30 05:07:31;;;;;;;16.73;9.70;;;;;;;14.48;100.00;100189.34;4193572;28;20337;-63
2022/08/30 05:09:58;;;;;;;16.47;9.03;;;;;;;14.47;100.00;100185.00;4189069;28;23013;-65
2022/08/30 05:12:26;;;;;;;16.43;9.33;;;;;;;14.59;100.00;100192.69;4196674;28;20237;-65
2022/08/30 05:14:53;;;;;;;20.37;9.97;;;;;;;14.66;100.00;100191.78;4211676;28;21358;-65
2022/08/30 05:17:19;;;;;;;13.23;8.53;;;;;;;14.71;100.00;100186.72;4204708;28;20225;-66
2022/08/30 05:19:46;;;;;;;13.50;8.30;;;;;;;14.67;100.00;100193.44;4198986;28;20240;-64
2022/08/30 05:22:13;;;;;;;15.63;7.77;;;;;;;14.69;100.00;100193.28;4196939;28;20296;-64
2022/08/30 05:24:40;;;;;;;11.33;6.50;;;;;;;14.57;100.00;100191.00;4185693;28;22175;-64
2022/08/30 05:27:06;;;;;;;12.13;7.70;;;;;;;14.62;100.00;100193.16;4184427;28;20912;-63
2022/08/30 05:29:33;;;;;;;11.73;6.83;;;;;;;14.77;100.00;100202.09;4188645;28;20309;-64
2022/08/30 05:31:59;;;;;;;13.47;7.20;;;;;;;14.77;100.00;100191.38;4191051;28;20236;-64
2022/08/30 05:34:29;;;;;;;12.90;6.87;;;;;;;14.78;100.00;100197.56;4192364;28;20522;-63
2022/08/30 05:36:55;;;;;;;11.80;6.23;;;;;;;14.88;100.00;100191.97;4214743;28;21475;-63
2022/08/30 05:39:22;;;;;;;12.43;6.03;;;;;;;14.97;100.00;100190.91;4214481;28;23611;-64
2022/08/30 05:41:49;;;;;;;11.77;5.77;;;;;;;14.97;100.00;100193.56;4208129;28;21322;-64
2022/08/30 05:44:15;;;;;;;11.17;5.40;;;;;;;15.08;100.00;100198.50;4208475;28;20236;-65
2022/08/30 05:46:45;;;;;;;10.17;5.50;;;;;;;15.11;100.00;100203.50;4207531;28;20253;-65
2022/08/30 05:49:11;;;;;;;13.57;5.17;;;;;;;14.99;100.00;100203.09;4214957;28;20559;-64
2022/08/30 05:51:38;;;;;;;14.07;5.50;;;;;;;15.11;100.00;100200.81;4187674;28;21625;-65
2022/08/30 05:54:10;;;;;;;9.07;4.57;;;;;;;15.13;100.00;100201.47;4204136;28;20420;-65
2022/08/30 05:56:38;;;;;;;8.53;4.80;;;;;;;15.24;100.00;100197.56;4187949;28;20284;-64
2022/08/30 05:59:06;;;;;;;7.87;4.20;;;;;;;15.37;100.00;100199.59;4221365;28;20233;-68
2022/08/30 06:01:36;;;;;;;12.53;5.03;;;;;;;15.42;100.00;100202.56;4212463;28;20293;-55
2022/08/30 06:04:04;;;;;;;14.33;4.50;;;;;;;15.53;100.00;100196.75;4211900;28;20982;-44
2022/08/30 06:06:33;;;;;;;9.67;3.70;;;;;;;15.74;100.00;100197.91;4201588;28;23473;-44
2022/08/30 06:08:59;;;;;;;10.30;4.13;;;;;;;15.79;100.00;100203.56;4207744;28;20239;-45
2022/08/30 06:11:27;;;;;;;4.97;3.60;;;;;;;15.76;100.00;100206.63;4210193;28;20228;-48
2022/08/30 06:13:54;;;;;;;10.50;4.23;;;;;;;15.98;100.00;100205.69;4191436;28;20247;-62
2022/08/30 06:16:23;;;;;;;7.67;3.40;;;;;;;16.02;100.00;100206.97;4215227;28;20237;-65
2022/08/30 06:18:51;;;;;;;5.80;3.30;;;;;;;15.92;100.00;100206.44;4219761;28;20432;-63
2022/08/30 06:21:26;;;;;;;7.90;3.67;;;;;;;16.11;100.00;100214.91;4214691;28;22835;-63
2022/08/30 06:23:53;;;;;;;11.00;3.73;;;;;;;16.31;100.00;100217.88;4210423;28;20338;-63
2022/08/30 06:26:19;;;;;;;7.87;3.80;;;;;;;16.54;100.00;100225.78;4200523;28;21090;-65
2022/08/30 06:28:47;;;;;;;8.30;3.60;;;;;;;16.50;100.00;100224.50;4204138;28;21898;-61
2022/08/30 06:31:16;;;;;;;7.10;3.27;;;;;;;16.34;100.00;100228.22;4193255;28;20231;-64
2022/08/30 06:33:43;;;;;;;5.57;3.30;;;;;;;16.36;100.00;100223.50;4203115;28;20247;-64
2022/08/30 06:36:14;;;;;;;11.60;3.33;;;;;;;16.26;100.00;100223.81;4205536;28;20455;-64
2022/08/30 06:38:41;;;;;;;10.20;3.73;;;;;;;16.25;100.00;100222.16;4200117;28;20236;-63
2022/08/30 06:41:13;;;;;;;7.73;3.43;;;;;;;16.31;100.00;100232.13;4185567;28;20240;-61
2022/08/30 06:43:40;;;;;;;7.33;3.47;;;;;;;16.29;100.00;100223.41;4201178;28;20284;-66
2022/08/30 06:46:16;;;;;;;7.87;3.20;;;;;;;16.28;100.00;100221.75;4202864;28;22087;-66
2022/08/30 06:48:43;;;;;;;7.07;2.50;;;;;;;16.28;100.00;100231.69;4194044;28;20230;-65
2022/08/30 06:51:14;;;;;;;11.00;2.80;;;;;;;16.31;100.00;100226.75;4206435;28;20267;-71
2022/08/30 06:53:41;;;;;;;6.07;3.10;;;;;;;16.35;100.00;100236.09;4191721;28;20300;-64
2022/08/30 06:56:11;;;;;;;12.13;3.40;;;;;;;16.32;100.00;100232.94;4186068;28;20238;-64
2022/08/30 06:58:42;;;;;;;7.47;3.73;;;;;;;16.25;100.00;100240.94;4185135;28;20237;-72
2022/08/30 07:01:19;;;;;;;8.33;3.40;;;;;;;16.36;100.00;100235.06;4210810;28;20308;-73
2022/08/30 07:03:46;;;;;;;6.57;3.20;;;;;;;16.39;100.00;100245.47;4207989;28;21139;-74
2022/08/30 07:06:13;;;;;;;7.87;3.17;;;;;;;16.29;100.00;100244.06;4202239;28;20615;-70
2022/08/30 07:08:40;;;;;;;6.00;3.67;;;;;;;16.24;100.00;100250.00;4209279;28;20641;-71
2022/08/30 07:11:07;;;;;;;7.10;2.90;;;;;;;16.23;100.00;100249.16;4213721;28;20333;-71
2022/08/30 07:13:35;;;;;;;7.87;3.37;;;;;;;16.24;100.00;100258.06;4205245;28;20291;-72
2022/08/30 07:16:12;;;;;;;7.20;2.93;;;;;;;16.21;100.00;100267.31;4237880;28;21644;-71
2022/08/30 07:18:55;;;;;;;7.43;3.13;;;;;;;16.22;100.00;100266.31;4208284;28;20221;-68
2022/08/30 07:21:29;;;;;;;8.70;3.20;;;;;;;16.30;100.00;100267.25;4184323;28;20850;-68
2022/08/30 07:23:57;;;;;;;8.17;3.17;;;;;;;16.43;100.00;100267.38;4207756;28;20236;-69
2022/08/30 07:26:29;;;;;;;7.13;3.30;;;;;;;16.48;100.00;100262.28;4220620;28;20236;-71
2022/08/30 07:28:57;;;;;;;9.63;3.67;;;;;;;16.38;100.00;100264.44;4210379;28;20762;-70
2022/08/30 07:31:24;;;;;;;6.40;3.30;;;;;;;16.62;100.00;100268.66;4212721;28;21605;-75
2022/08/30 07:33:54;;;;;;;6.03;2.90;;;;;;;16.73;99.99;100268.16;4219854;28;20430;-76
2022/08/30 07:36:21;;;;;;;9.40;3.80;;;;;;;17.01;99.38;100275.53;4232608;28;20539;-73
2022/08/30 07:38:49;;;;;;;6.07;3.10;;;;;;;17.20;97.16;100282.97;4256206;28;20243;-72
2022/08/30 07:41:20;;;;;;;9.47;2.80;;;;;;;17.34;96.34;100280.41;4228237;28;20640;-71
2022/08/30 07:43:46;;;;;;;11.50;3.10;;;;;;;17.26;96.63;100284.88;4259127;28;21079;-74
2022/08/30 07:46:13;;;;;;;8.27;2.70;;;;;;;17.54;95.56;100280.59;4256127;28;20241;-72
2022/08/30 07:48:40;;;;;;;5.23;2.60;;;;;;;17.60;94.38;100282.47;4236591;28;21063;-73
2022/08/30 07:51:12;;;;;;;8.87;2.60;;;;;;;17.69;92.77;100279.44;4232993;28;21802;-72
2022/08/30 07:53:39;;;;;;;5.53;2.43;;;;;;;17.82;93.36;100283.31;4230273;28;20421;-72
2022/08/30 07:56:06;;;;;;;4.90;2.40;;;;;;;17.92;91.69;100289.19;4221772;28;20281;-71
2022/08/30 07:58:32;;;;;;;5.93;2.10;;;;;;;17.93;91.36;100293.53;4238905;28;20236;-70
2022/08/30 08:01:00;;;;;;;4.67;1.93;;;;;;;17.75;91.98;100298.53;4281911;28;20220;-71
2022/08/30 08:03:28;;;;;;;5.73;2.27;;;;;;;17.53;92.56;100290.50;4237094;28;22865;-68
2022/08/30 08:05:55;;;;;;;5.17;2.00;;;;;;;17.43;93.04;100298.06;4226959;28;20275;-68
2022/08/30 08:08:24;;;;;;;9.20;2.33;;;;;;;17.56;93.15;100297.34;4239470;28;25178;-77
2022/08/30 08:10:51;;;;;;;5.17;2.10;;;;;;;17.60;92.32;100302.16;4240312;28;21722;-75
2022/08/30 08:13:18;;;;;;;6.80;1.90;;;;;;;17.86;92.38;100295.34;4226148;28;21040;-74
2022/08/30 08:15:46;;;;;;;3.03;1.57;;;;;;;18.36;90.92;100301.47;4257433;28;20280;-52
2022/08/30 08:18:13;;;;;;;8.67;1.93;;;;;;;18.80;86.34;100308.34;4249823;28;20800;-67
2022/08/30 08:20:40;;;;;;;4.13;1.50;;;;;;;19.33;83.51;100310.31;4214295;28;20247;-48
2022/08/30 08:23:07;;;;;;;7.87;1.70;;;;;;;19.50;82.32;100313.44;4234855;28;20232;-63
2022/08/30 08:25:37;;;;;;;5.30;1.80;;;;;;;19.47;81.59;100313.88;4222836;28;21892;-66
2022/08/30 08:28:04;;;;;;;2.93;1.33;;;;;;;19.23;82.27;100305.31;4212569;28;22261;-65
2022/08/30 08:30:34;;;;;;;4.13;1.70;;;;;;;19.05;82.98;100310.47;4234823;28;20244;-65
2022/08/30 08:33:00;;;;;;;3.27;1.70;;;;;;;18.81;83.53;100304.59;4207652;28;20637;-68
2022/08/30 08:35:27;;;;;;;3.43;1.50;;;;;;;18.65;84.66;100313.00;4254277;28;20240;-65
2022/08/30 08:37:54;;;;;;;5.97;2.00;;;;;;;18.57;85.69;100311.31;4218090;28;20240;-63
2022/08/30 08:40:22;;;;;;;4.20;1.70;;;;;;;18.68;86.37;100309.88;4275521;28;20235;-65
2022/08/30 08:43:11;;;;;;;5.03;1.77;;;;;;;19.32;83.32;100319.47;4246761;28;20237;-66
2022/08/30 08:45:55;;;;;;;4.60;1.80;;;;;;;19.80;80.53;100327.41;4227557;28;21748;-68
2022/08/30 08:48:29;;;;;;;15.23;1.67;;;;;;;19.66;80.90;100326.53;4229085;28;20240;-65
2022/08/30 08:54:44;;;;;;;3.20;1.47;;;;;;;19.78;78.25;100332.16;4252388;28;20242;-65
2022/08/30 08:57:11;;;;;;;8.37;1.10;;;;;;;19.96;77.12;100323.44;4267012;28;20227;-66
2022/08/30 08:59:43;;;;;;;2.63;0.97;;;;;;;19.76;78.09;100329.69;4240160;28;20306;-63
2022/08/30 09:02:39;;;;;;;2.23;1.00;;;;;;;19.31;79.67;100332.09;4252289;28;20507;-65
2022/08/30 09:05:08;;;;;;;3.00;1.10;;;;;;;19.09;80.38;100322.53;4236377;28;20262;-64
2022/08/30 09:07:38;;;;;;;2.17;0.93;;;;;;;19.16;79.88;100323.38;4209821;28;20240;-65
2022/08/30 09:10:06;;;;;;;3.00;1.13;;;;;;;19.25;80.17;100329.41;4231565;28;20249;-65
2022/08/30 09:12:33;;;;;;;1.37;0.80;;;;;;;19.08;81.08;100328.94;4220961;28;20600;-66
2022/08/30 09:15:09;;;;;;;3.20;1.00;;;;;;;19.36;81.02;100324.25;4234575;28;20239;-64
2022/08/30 09:17:52;;;;;;;5.03;1.07;;;;;;;19.55;79.66;100327.16;4226798;28;20312;-64
2022/08/30 09:20:40;;;;;;;1.63;1.00;;;;;;;19.44;79.75;100328.59;4233054;28;20241;-64
2022/08/30 09:23:14;;;;;;;2.13;1.00;;;;;;;19.56;79.77;100328.81;4222616;28;20236;-66
2022/08/30 09:25:51;;;;;;;1.53;1.10;;;;;;;19.30;79.84;100322.34;4215595;28;20420;-65
2022/08/30 09:28:30;;;;;;;1.73;0.80;;;;;;;19.34;79.89;100325.50;4221398;28;20329;-64
2022/08/30 09:31:22;;;;;;;3.17;1.20;;;;;;;19.23;80.92;100334.19;4213740;28;21966;-63
2022/08/30 09:34:08;;;;;;;2.63;1.10;;;;;;;19.05;82.52;100337.44;4224063;28;20682;-68
2022/08/30 09:36:48;;;;;;;5.10;1.30;;;;;;;19.15;82.51;100329.78;4222522;28;20361;-64
2022/08/30 09:39:20;;;;;;;3.17;0.93;;;;;;;19.34;82.68;100331.72;4215946;28;20703;-68
2022/08/30 09:41:53;;;;;;;3.77;1.13;;;;;;;19.53;80.39;100340.88;4217862;28;21321;-66
2022/08/30 09:44:29;;;;;;;3.23;1.20;;;;;;;19.39;81.16;100340.00;4259276;28;20560;-66
2022/08/30 09:46:59;;;;;;;4.30;1.23;;;;;;;19.34;80.76;100341.69;4231190;28;21253;-65
2022/08/30 09:49:37;;;;;;;2.50;1.13;;;;;;;19.33;80.00;100348.09;4218575;28;20251;-67
2022/08/30 09:52:42;;;;;;;3.97;1.53;;;;;;;19.00;82.27;100338.03;4220190;28;21586;-65
2022/08/30 09:55:32;;;;;;;3.40;1.10;;;;;;;18.98;83.55;100335.53;4230941;28;20232;-66
2022/08/30 09:58:20;;;;;;;4.20;1.70;;;;;;;19.19;82.62;100336.44;4226955;28;20353;-64
2022/08/30 10:01:28;;;;;;;3.43;1.00;;;;;;;19.10;81.46;100340.34;4234602;28;22138;-64
2022/08/30 10:04:07;;;;;;;1.50;0.90;;;;;;;19.15;81.42;100340.56;4241723;28;20646;-67
2022/08/30 10:06:51;;;;;;;3.10;1.13;;;;;;;18.98;82.11;100340.94;4213472;28;20241;-64
2022/08/30 10:09:39;;;;;;;4.63;1.17;;;;;;;19.06;83.18;100341.78;4217242;28;20257;-63
2022/08/30 10:12:15;;;;;;;2.20;1.03;;;;;;;19.08;82.70;100348.66;4199942;28;20365;-67
2022/08/30 10:14:44;;;;;;;5.20;0.90;;;;;;;19.11;82.56;100339.34;4224765;28;23785;-64
2022/08/30 10:17:31;;;;;;;3.80;1.00;;;;;;;19.07;81.06;100340.78;4213067;28;20235;-65
2022/08/30 10:20:10;;;;;;;4.40;1.40;;;;;;;19.00;81.95;100342.63;4222604;28;22092;-62
2022/08/30 10:22:41;;;;;;;1.80;1.00;;;;;;;18.84;82.76;100344.63;4221693;28;20232;-63
2022/08/30 10:25:16;;;;;;;1.60;0.90;;;;;;;18.61;86.30;100352.16;4201248;28;20242;-64
2022/08/30 10:27:51;;;;;;;5.43;1.07;;;;;;;18.34;89.21;100352.03;4208244;28;20244;-61
2022/08/30 10:30:18;;;;;;;4.47;1.00;;;;;;;18.29;90.96;100355.31;4197522;28;20247;-47
2022/08/30 10:32:54;;;;;;;3.17;1.23;;;;;;;18.43;91.46;100352.69;4226147;28;20730;-66
2022/08/30 10:35:24;;;;;;;6.07;0.90;;;;;;;18.46;92.48;100355.81;4219065;28;21181;-64
2022/08/30 10:37:55;;;;;;;5.30;1.20;;;;;;;18.74;91.29;100346.84;4197195;28;20315;-64
2022/08/30 10:43:22;;;;;;;2.87;1.00;;;;;;;18.92;87.66;100351.72;4256443;28;25613;-63
2022/08/30 10:45:50;;;;;;;4.10;1.00;;;;;;;18.90;87.50;100351.91;4195418;28;20241;-64
2022/08/30 10:48:27;;;;;;;3.90;1.00;;;;;;;18.80;86.76;100354.16;4280875;28;20242;-64
2022/08/30 10:50:58;;;;;;;4.97;1.43;;;;;;;18.84;86.04;100354.59;4266896;28;20842;-63
2022/08/30 10:53:32;;;;;;;5.50;1.13;;;;;;;18.75;85.39;100348.50;4201198;28;20623;-63
2022/08/30 10:56:02;;;;;;;3.33;1.20;;;;;;;18.65;86.12;100356.13;4198726;28;20303;-63
2022/08/30 10:58:30;;;;;;;2.10;0.60;;;;;;;18.64;85.84;100349.09;4236000;28;21465;-67
2022/08/30 11:01:19;;;;;;;1.10;0.80;;;;;;;18.52;85.38;100352.34;4233451;28;20289;-62
2022/08/30 11:04:23;;;;;;;1.77;0.70;;;;;;;18.46;85.68;100357.69;4212819;28;20235;-66
2022/08/30 11:07:08;;;;;;;1.83;0.70;;;;;;;18.52;86.22;100349.66;4218496;28;20527;-64
2022/08/30 11:09:53;;;;;;;3.03;1.40;;;;;;;18.59;85.46;100346.13;4195541;28;21066;-64
2022/08/30 11:12:31;;;;;;;3.67;0.80;;;;;;;18.84;84.67;100346.50;4203204;28;21696;-66
2022/08/30 11:14:58;;;;;;;2.13;0.60;;;;;;;19.02;81.41;100348.66;4213617;28;22033;-64
2022/08/30 11:17:27;;;;;;;3.30;1.00;;;;;;;19.08;83.30;100345.13;4235452;28;20765;-62
2022/08/30 11:19:57;;;;;;;2.00;0.70;;;;;;;19.07;80.98;100351.56;4225581;28;20243;-63
2022/08/30 11:22:27;;;;;;;2.07;0.80;;;;;;;19.13;81.50;100348.06;4227501;28;20225;-63
2022/08/30 11:24:59;;;;;;;4.53;0.60;;;;;;;19.32;80.80;100339.16;4221707;28;22084;-63
2022/08/30 11:27:58;;;;;;;2.40;0.80;;;;;;;19.50;79.71;100348.53;4213094;28;20272;-63
2022/08/30 11:30:24;;;;;;;1.83;0.70;;;;;;;19.61;78.35;100347.91;4206815;28;20236;-63
2022/08/30 11:32:59;;;;;;;2.57;0.70;;;;;;;19.65;75.58;100353.75;4191272;28;20228;-65
2022/08/30 11:35:53;;;;;;;3.10;0.73;;;;;;;19.66;73.85;100353.53;4219244;28;20247;-66